createdAt,value
2022-09-28T04:03:59.251Z,4.00
2022-09-28T04:08:11.121Z,4.93
2022-09-28T04:12:58.907Z,8.70
2022-09-28T04:17:10.438Z,8.70
2022-09-28T04:21:22.106Z,6.70
2022-09-28T04:25:39.635Z,10.43
2022-09-28T04:29:51.177Z,9.30
2022-09-28T04:34:04.027Z,8.07
2022-09-28T04:38:26.799Z,8.95
2022-09-28T04:42:56.440Z,7.72
2022-09-28T04:47:09.840Z,9.32
2022-09-28T04:51:40.112Z,7.85
2022-09-28T04:56:06.326Z,7.53
2022-09-28T05:00:17.954Z,10.15
2022-09-28T05:04:44.501Z,6.43
2022-09-28T05:09:11.675Z,9.45
2022-09-28T05:13:23.165Z,8.98
2022-09-28T05:24:21.438Z,13.55
2022-09-28T05:28:37.060Z,7.63
2022-09-28T05:33:20.873Z,7.72
2022-09-28T05:37:41.199Z,8.00
2022-09-28T05:41:52.879Z,12.68
2022-09-28T05:46:05.698Z,8.18
2022-09-28T05:51:16.707Z,8.07
2022-09-28T05:55:28.867Z,13.02
2022-09-28T05:59:40.620Z,11.10
2022-09-28T06:03:52.219Z,15.95
2022-09-28T06:08:05.630Z,13.80
2022-09-28T06:12:17.605Z,11.02
2022-09-28T06:16:32.629Z,14.27
2022-09-28T06:20:44.310Z,11.98
2022-09-28T06:25:00.502Z,7.28
2022-09-28T06:29:18.722Z,8.80
2022-09-28T06:33:31.243Z,8.18
2022-09-28T06:37:45.170Z,8.20
2022-09-28T06:41:58.716Z,10.02
2022-09-28T06:46:20.883Z,5.22
2022-09-28T06:50:41.044Z,7.70
2022-09-28T06:55:12.462Z,5.82
2022-09-28T07:05:29.584Z,5.97
2022-09-28T07:09:51.243Z,6.55
2022-09-28T07:14:40.352Z,5.85
2022-09-28T07:18:56.349Z,5.88
2022-09-28T07:23:18.175Z,9.48
2022-09-28T07:27:49.590Z,4.93
2022-09-28T07:32:16.162Z,4.85
2022-09-28T07:36:41.938Z,5.30
2022-09-28T07:41:11.723Z,5.00
2022-09-28T07:45:30.084Z,4.95
2022-09-28T07:49:41.699Z,4.78
2022-09-28T07:54:13.142Z,4.80
2022-09-28T07:58:52.764Z,5.47
2022-09-28T08:03:07.244Z,5.35
2022-09-28T08:07:23.518Z,4.78
2022-09-28T08:11:43.798Z,5.93
2022-09-28T08:16:18.925Z,4.63
2022-09-28T08:21:10.922Z,4.32
2022-09-28T08:25:24.270Z,3.58
2022-09-28T08:29:36.633Z,4.88
2022-09-28T08:34:06.747Z,4.22
2022-09-28T08:38:36.913Z,4.45
2022-09-28T08:43:37.718Z,4.53
2022-09-28T08:48:45.693Z,6.22
2022-09-28T08:53:36.052Z,6.53
2022-09-28T08:58:25.689Z,3.63
2022-09-28T09:02:39.510Z,5.88
2022-09-28T09:07:18.882Z,4.47
2022-09-28T09:11:50.020Z,5.10
2022-09-28T09:16:18.431Z,5.03
2022-09-28T09:21:07.488Z,5.47
2022-09-28T09:25:50.453Z,4.43
2022-09-28T09:30:08.795Z,5.00
2022-09-28T09:34:40.238Z,7.80
2022-09-28T09:39:41.184Z,4.15
2022-09-28T09:44:32.546Z,4.13
2022-09-28T09:49:18.121Z,4.82
2022-09-28T09:53:38.658Z,6.38
2022-09-28T09:58:06.233Z,3.67
2022-09-28T10:02:32.015Z,3.25
2022-09-28T10:07:06.634Z,4.55
2022-09-28T10:11:31.369Z,4.43
2022-09-28T10:15:47.402Z,2.83
2022-09-28T10:20:05.074Z,3.72
2022-09-28T10:25:36.627Z,5.50
2022-09-28T10:29:54.162Z,8.40
2022-09-28T10:34:07.742Z,6.22
2022-09-28T10:38:20.886Z,2.95
2022-09-28T10:42:33.997Z,4.88
2022-09-28T10:46:56.869Z,4.45
2022-09-28T10:51:08.545Z,4.78
2022-09-28T10:55:32.524Z,3.33
2022-09-28T10:59:46.618Z,5.13
2022-09-28T11:04:08.019Z,3.97
2022-09-28T11:08:26.782Z,2.92
2022-09-28T11:12:43.824Z,5.03
2022-09-28T11:17:15.100Z,3.50
2022-09-28T11:21:32.060Z,5.05
2022-09-28T11:26:04.289Z,3.22
2022-09-28T11:30:33.614Z,2.97
2022-09-28T11:35:21.945Z,4.13
2022-09-28T11:40:06.000Z,4.47
2022-09-28T11:50:31.167Z,3.42
2022-09-28T11:55:21.215Z,3.30
2022-09-28T11:59:39.299Z,2.50
2022-09-28T12:03:59.918Z,1.70
2022-09-28T12:08:20.487Z,2.22
2022-09-28T12:19:11.652Z,2.22
2022-09-28T12:23:33.781Z,1.83
2022-09-28T12:27:51.377Z,3.63
2022-09-28T12:32:14.475Z,2.70
2022-09-28T12:36:47.805Z,1.65
2022-09-28T12:41:16.699Z,3.28
2022-09-28T12:46:10.846Z,2.70
2022-09-28T12:50:45.713Z,3.22
2022-09-28T12:55:35.144Z,3.72
2022-09-28T13:00:11.796Z,5.05
2022-09-28T13:04:47.276Z,2.95
2022-09-28T13:09:15.878Z,2.28
2022-09-28T13:13:40.129Z,1.73
2022-09-28T13:23:57.876Z,3.53
2022-09-28T13:28:54.703Z,3.47
2022-09-28T13:33:08.162Z,3.22
2022-09-28T13:37:57.142Z,3.50
2022-09-28T13:42:09.534Z,3.42
2022-09-28T13:46:45.428Z,2.83
2022-09-28T13:51:14.186Z,2.13
2022-09-28T13:55:41.721Z,2.25
2022-09-28T14:06:20.714Z,2.80
2022-09-28T14:10:54.072Z,2.90
2022-09-28T14:15:30.474Z,2.60
2022-09-28T14:31:42.648Z,5.13
2022-09-28T14:41:52.662Z,3.38
2022-09-28T14:46:19.852Z,5.18
2022-09-28T14:51:28.948Z,2.65
2022-09-28T14:55:50.505Z,2.97
2022-09-28T15:00:14.912Z,3.13
2022-09-28T15:04:29.578Z,5.22
2022-09-28T15:08:41.115Z,3.35
2022-09-28T15:18:55.141Z,3.15
2022-09-28T15:23:25.557Z,6.28
2022-09-28T15:27:38.574Z,3.75
2022-09-28T15:31:54.152Z,3.28
2022-09-28T15:36:08.543Z,5.70
2022-09-28T15:40:31.942Z,6.05
2022-09-28T15:45:00.551Z,4.18
2022-09-28T15:49:30.663Z,2.97
2022-09-28T15:53:48.843Z,4.43
2022-09-28T15:58:43.968Z,4.95
2022-09-28T16:03:01.671Z,4.85
2022-09-28T16:07:13.194Z,3.83
2022-09-28T16:11:28.914Z,3.45
2022-09-28T16:15:40.453Z,3.65
2022-09-28T16:19:52.017Z,5.40
2022-09-28T16:24:03.811Z,6.03
2022-09-28T16:34:26.312Z,5.30
2022-09-28T16:38:57.851Z,10.75
2022-09-28T16:43:20.356Z,29.10
2022-09-28T16:47:34.118Z,18.17
2022-09-28T16:51:47.370Z,9.98
2022-09-28T16:55:59.692Z,9.88
2022-09-28T17:00:22.987Z,11.05
2022-09-28T17:04:34.476Z,8.10
2022-09-28T17:08:46.137Z,8.00
2022-09-28T17:12:57.655Z,10.25
2022-09-28T17:21:40.789Z,12.10
2022-09-28T17:25:54.571Z,12.05
2022-09-28T17:30:58.202Z,8.23
2022-09-28T17:35:24.239Z,29.60
2022-09-28T17:39:36.788Z,22.17
2022-09-28T17:43:48.758Z,20.48
2022-09-28T17:48:00.721Z,24.15
2022-09-28T17:52:13.115Z,26.55
2022-09-28T17:56:29.699Z,25.30
2022-09-28T18:00:47.663Z,16.48
2022-09-28T18:05:02.634Z,10.07
2022-09-28T18:09:15.112Z,6.95
2022-09-28T18:13:26.625Z,5.50
2022-09-28T18:17:38.662Z,12.57
2022-09-28T18:21:50.245Z,8.90
2022-09-28T18:26:01.733Z,9.45
2022-09-28T18:30:13.221Z,8.43
2022-09-28T18:34:24.924Z,11.15
2022-09-28T18:38:37.067Z,12.05
2022-09-28T18:42:50.715Z,10.40
2022-09-28T18:47:02.370Z,13.15
2022-09-28T18:51:13.894Z,7.68
2022-09-28T18:55:25.349Z,6.72
2022-09-28T18:59:36.837Z,7.15
2022-09-28T19:03:48.316Z,4.43
2022-09-28T19:08:00.076Z,8.82
2022-09-28T19:12:11.961Z,11.23
2022-09-28T19:16:28.033Z,14.68
2022-09-28T19:20:39.537Z,13.23
2022-09-28T19:24:51.077Z,18.33
2022-09-28T19:29:02.946Z,13.02
2022-09-28T19:33:14.667Z,7.72
2022-09-28T19:37:26.183Z,5.60
2022-09-28T19:41:44.687Z,4.78
2022-09-28T19:45:56.477Z,6.57
2022-09-28T19:50:08.741Z,6.25
2022-09-28T19:54:22.162Z,4.82
2022-09-28T19:58:36.248Z,6.47
2022-09-28T20:02:47.799Z,6.63
2022-09-28T20:06:59.389Z,6.05
2022-09-28T20:11:10.906Z,5.75
2022-09-28T20:15:23.714Z,6.70
2022-09-28T20:19:35.956Z,4.82
2022-09-28T20:23:47.890Z,3.83
2022-09-28T20:27:59.530Z,4.32
2022-09-28T20:32:11.529Z,3.67
2022-09-28T20:36:24.661Z,6.15
2022-09-28T20:40:37.366Z,6.45
2022-09-28T20:44:48.896Z,8.48
2022-09-28T20:49:00.433Z,5.63
2022-09-28T20:53:11.934Z,5.47
2022-09-28T20:57:23.416Z,5.40
2022-09-28T21:01:35.490Z,7.82
2022-09-28T21:05:50.587Z,7.30
2022-09-28T21:10:02.104Z,8.10
2022-09-28T21:14:13.596Z,6.15
2022-09-28T21:18:25.319Z,4.32
2022-09-28T21:22:39.218Z,5.57
2022-09-28T21:26:50.820Z,5.45
